createdAt,value
2018-09-10T00:00:05.547Z,17.79
2018-09-10T00:02:34.043Z,17.68
2018-09-10T00:05:02.519Z,17.60
2018-09-10T00:07:31.024Z,17.64
2018-09-10T00:09:59.513Z,17.59
2018-09-10T00:12:27.871Z,17.51
2018-09-10T00:14:56.212Z,17.45
2018-09-10T00:17:24.610Z,17.47
2018-09-10T00:19:53.015Z,17.45
2018-09-10T00:22:21.350Z,17.41
2018-09-10T00:24:49.727Z,17.50
2018-09-10T00:27:18.110Z,17.60
2018-09-10T00:29:46.496Z,17.61
2018-09-10T00:32:14.899Z,17.50
2018-09-10T00:34:43.754Z,17.34
2018-09-10T00:37:12.108Z,17.21
2018-09-10T00:39:40.429Z,17.11
2018-09-10T00:42:08.759Z,17.07
2018-09-10T00:44:37.919Z,17.08
2018-09-10T00:47:06.289Z,17.10
2018-09-10T00:49:34.612Z,17.08
2018-09-10T00:52:02.922Z,17.09
2018-09-10T00:54:31.399Z,17.06
2018-09-10T00:56:59.858Z,17.03
2018-09-10T00:59:28.192Z,17.01
2018-09-10T01:01:56.824Z,16.96
2018-09-10T01:04:25.155Z,16.93
2018-09-10T01:06:53.625Z,16.95
2018-09-10T01:09:22.171Z,16.98
2018-09-10T01:11:50.507Z,16.96
2018-09-10T01:14:18.843Z,16.87
2018-09-10T01:16:47.283Z,16.82
2018-09-10T01:19:15.857Z,16.67
2018-09-10T01:21:44.223Z,16.59
2018-09-10T01:24:12.704Z,16.53
2018-09-10T01:26:41.145Z,16.46
2018-09-10T01:29:09.481Z,16.40
2018-09-10T01:31:37.951Z,16.39
2018-09-10T01:34:11.793Z,16.37
2018-09-10T01:36:40.222Z,16.34
2018-09-10T01:39:09.539Z,16.38
2018-09-10T01:41:37.872Z,16.44
2018-09-10T01:44:06.278Z,16.49
2018-09-10T01:46:34.747Z,16.60
2018-09-10T01:49:03.075Z,16.66
2018-09-10T01:51:31.635Z,16.77
2018-09-10T01:54:00.214Z,16.86
2018-09-10T01:56:28.754Z,16.86
2018-09-10T01:58:57.143Z,16.80
2018-09-10T02:01:25.465Z,16.78
2018-09-10T02:03:53.963Z,16.83
2018-09-10T02:06:22.343Z,16.81
2018-09-10T02:08:50.671Z,16.79
2018-09-10T02:11:19.119Z,16.80
2018-09-10T02:13:47.479Z,16.81
2018-09-10T02:16:16.958Z,16.87
2018-09-10T02:18:46.415Z,16.86
2018-09-10T02:21:15.275Z,16.83
2018-09-10T02:23:43.705Z,16.82
2018-09-10T02:26:12.066Z,16.78
2018-09-10T02:28:40.487Z,16.80
2018-09-10T02:31:08.803Z,16.76
2018-09-10T02:33:37.183Z,16.80
2018-09-10T02:36:05.751Z,16.85
2018-09-10T02:38:34.192Z,16.88
2018-09-10T02:41:02.519Z,16.87
2018-09-10T02:43:31.092Z,16.90
2018-09-10T02:45:59.420Z,16.91
2018-09-10T02:48:27.820Z,16.84
2018-09-10T02:50:56.277Z,16.77
2018-09-10T02:53:24.722Z,16.71
2018-09-10T02:55:53.056Z,16.69
2018-09-10T02:58:21.784Z,16.64
2018-09-10T03:00:50.312Z,16.67
2018-09-10T03:03:18.740Z,16.70
2018-09-10T03:05:47.187Z,16.72
2018-09-10T03:08:15.605Z,16.69
2018-09-10T03:10:43.972Z,16.63
2018-09-10T03:13:12.396Z,16.63
2018-09-10T03:15:40.760Z,16.65
2018-09-10T03:18:09.128Z,16.59
2018-09-10T03:20:37.495Z,16.58
2018-09-10T03:23:06.308Z,16.51
2018-09-10T03:25:34.643Z,16.51
2018-09-10T03:28:02.997Z,16.49
2018-09-10T03:30:31.430Z,16.45
2018-09-10T03:32:59.811Z,16.44
2018-09-10T03:35:28.171Z,16.42
2018-09-10T03:37:56.547Z,16.34
2018-09-10T03:40:24.931Z,16.19
2018-09-10T03:42:53.505Z,15.98
2018-09-10T03:45:21.891Z,15.91
2018-09-10T03:47:50.220Z,15.93
2018-09-10T03:50:18.745Z,16.00
2018-09-10T03:52:47.165Z,16.00
2018-09-10T03:55:15.521Z,16.00
2018-09-10T03:57:43.907Z,16.01
2018-09-10T04:00:12.577Z,15.96
2018-09-10T04:02:40.950Z,15.90
2018-09-10T04:05:09.635Z,15.91
2018-09-10T04:07:38.284Z,15.91
2018-09-10T04:10:06.662Z,15.90
2018-09-10T04:12:35.177Z,15.93
2018-09-10T04:15:03.656Z,16.00
2018-09-10T04:17:34.982Z,15.99
2018-09-10T04:20:10.756Z,15.91
2018-09-10T04:22:40.351Z,15.90
2018-09-10T04:25:08.816Z,15.90
2018-09-10T04:27:37.811Z,15.93
2018-09-10T04:30:10.144Z,15.96
2018-09-10T04:32:38.685Z,15.93
2018-09-10T04:35:07.024Z,15.89
2018-09-10T04:37:35.452Z,15.89
2018-09-10T04:40:04.235Z,15.87
2018-09-10T04:42:32.716Z,15.78
2018-09-10T04:45:01.345Z,15.65
2018-09-10T04:47:29.791Z,15.62
2018-09-10T04:49:58.331Z,15.61
2018-09-10T04:52:26.662Z,15.50
2018-09-10T04:54:55.011Z,15.56
2018-09-10T04:57:23.347Z,15.60
2018-09-10T04:59:51.773Z,15.64
2018-09-10T05:02:20.212Z,15.68
2018-09-10T05:04:48.635Z,15.75
2018-09-10T05:07:16.977Z,15.79
2018-09-10T05:09:45.600Z,15.81
2018-09-10T05:12:13.917Z,15.80
2018-09-10T05:14:42.266Z,15.74
2018-09-10T05:17:10.702Z,15.71
2018-09-10T05:19:39.005Z,15.70
2018-09-10T05:22:07.464Z,15.71
2018-09-10T05:24:35.802Z,15.67
2018-09-10T05:27:04.161Z,15.66
2018-09-10T05:29:33.309Z,15.68
2018-09-10T05:32:01.684Z,15.71
2018-09-10T05:34:30.011Z,15.72
2018-09-10T05:36:58.367Z,15.75
2018-09-10T05:39:26.822Z,15.81
2018-09-10T05:41:55.295Z,15.91
2018-09-10T05:44:23.885Z,15.89
2018-09-10T05:46:52.347Z,15.83
2018-09-10T05:49:20.795Z,15.84
2018-09-10T05:51:49.807Z,15.81
2018-09-10T05:54:18.246Z,15.88
2018-09-10T05:56:46.637Z,15.90
2018-09-10T05:59:15.051Z,15.91
2018-09-10T06:01:43.785Z,15.98
2018-09-10T06:04:12.105Z,16.02
2018-09-10T06:06:40.448Z,16.09
2018-09-10T06:09:09.397Z,16.22
2018-09-10T06:11:38.211Z,16.36
2018-09-10T06:14:06.613Z,16.43
2018-09-10T06:16:35.125Z,16.52
2018-09-10T06:19:03.444Z,16.60
2018-09-10T06:21:32.119Z,16.62
2018-09-10T06:24:01.894Z,16.67
2018-09-10T06:26:30.483Z,16.72
2018-09-10T06:28:58.843Z,16.78
2018-09-10T06:31:27.215Z,16.80
2018-09-10T06:33:56.510Z,16.80
2018-09-10T06:36:25.459Z,16.80
2018-09-10T06:38:54.295Z,16.88
2018-09-10T06:41:22.838Z,16.94
2018-09-10T06:43:51.271Z,16.95
2018-09-10T06:46:19.701Z,16.92
2018-09-10T06:48:48.035Z,16.94
2018-09-10T06:51:16.453Z,17.01
2018-09-10T06:53:44.832Z,17.04
2018-09-10T06:56:13.310Z,17.12
2018-09-10T06:58:41.735Z,17.22
2018-09-10T07:01:10.104Z,17.31
2018-09-10T07:03:38.687Z,17.41
2018-09-10T07:06:07.383Z,17.46
2018-09-10T07:08:35.788Z,17.56
2018-09-10T07:11:04.367Z,17.65
2018-09-10T07:13:32.732Z,17.73
2018-09-10T07:16:01.187Z,17.81
2018-09-10T07:18:29.624Z,17.90
2018-09-10T07:20:57.968Z,17.98
2018-09-10T07:23:26.331Z,18.05
2018-09-10T07:25:54.806Z,18.10
2018-09-10T07:28:23.199Z,18.19
2018-09-10T07:30:51.599Z,18.27
2018-09-10T07:33:19.911Z,18.36
2018-09-10T07:35:48.239Z,18.42
2018-09-10T07:38:16.751Z,18.50
2018-09-10T07:40:45.088Z,18.56
2018-09-10T07:43:13.427Z,18.61
2018-09-10T07:45:41.936Z,18.67
2018-09-10T07:48:10.335Z,18.73
2018-09-10T07:50:38.661Z,18.83
2018-09-10T07:53:07.099Z,18.95
2018-09-10T07:55:35.566Z,19.05
2018-09-10T07:58:03.951Z,19.13
2018-09-10T08:00:32.512Z,19.19
2018-09-10T08:03:00.943Z,19.25
2018-09-10T08:05:29.377Z,19.31
2018-09-10T08:07:57.811Z,19.35
2018-09-10T08:10:26.272Z,19.43
2018-09-10T08:12:54.727Z,19.55
2018-09-10T08:15:23.196Z,19.64
2018-09-10T08:17:51.591Z,19.70
2018-09-10T08:20:19.967Z,19.73
2018-09-10T08:22:48.821Z,19.81
2018-09-10T08:25:17.303Z,19.89
2018-09-10T08:27:45.624Z,19.97
2018-09-10T08:30:14.189Z,20.03
2018-09-10T08:32:42.608Z,20.12
2018-09-10T08:35:11.111Z,20.17
2018-09-10T08:37:39.547Z,20.28
2018-09-10T08:40:08.034Z,20.41
2018-09-10T08:42:36.409Z,20.55
2018-09-10T08:45:05.297Z,20.64
2018-09-10T08:47:33.657Z,20.73
2018-09-10T08:50:02.148Z,20.83
2018-09-10T08:52:30.540Z,20.95
2018-09-10T08:54:59.325Z,21.00
2018-09-10T08:57:27.263Z,21.06
2018-09-10T08:59:55.715Z,21.14
2018-09-10T09:02:24.148Z,21.21
2018-09-10T09:04:52.517Z,21.31
2018-09-10T09:07:20.920Z,21.38
2018-09-10T09:09:49.467Z,21.47
2018-09-10T09:12:17.846Z,21.54
2018-09-10T09:14:46.236Z,21.59
2018-09-10T09:17:14.723Z,21.62
2018-09-10T09:19:43.112Z,21.67
2018-09-10T09:22:11.636Z,21.76
2018-09-10T09:24:40.064Z,21.82
2018-09-10T09:27:08.444Z,21.88
2018-09-10T09:29:36.847Z,21.97
2018-09-10T09:32:05.263Z,22.02
2018-09-10T09:35:07.655Z,22.06
2018-09-10T09:37:41.252Z,22.13
2018-09-10T09:40:14.887Z,22.23
2018-09-10T09:42:48.555Z,22.33
2018-09-10T09:45:22.200Z,22.37
2018-09-10T09:47:50.556Z,22.44
2018-09-10T09:50:18.948Z,22.49
2018-09-10T09:52:47.354Z,22.55
2018-09-10T09:55:15.804Z,22.57
2018-09-10T09:57:44.765Z,22.61
2018-09-10T10:00:20.180Z,22.75
2018-09-10T10:03:01.976Z,22.89
2018-09-10T10:05:30.391Z,22.98
2018-09-10T10:07:58.871Z,23.02
2018-09-10T10:10:27.246Z,23.10
2018-09-10T10:12:55.651Z,23.18
2018-09-10T10:15:24.012Z,23.24
2018-09-10T10:17:52.396Z,23.31
2018-09-10T10:20:20.796Z,23.42
2018-09-10T10:22:49.176Z,23.48
2018-09-10T10:25:17.524Z,23.53
2018-09-10T10:27:46.042Z,23.62
2018-09-10T10:30:14.404Z,23.77
2018-09-10T10:32:42.756Z,23.84
2018-09-10T10:35:11.176Z,23.88
2018-09-10T10:37:39.527Z,23.94
2018-09-10T10:40:08.156Z,24.07
2018-09-10T10:42:36.620Z,24.17
2018-09-10T10:45:05.101Z,24.26
2018-09-10T10:47:33.454Z,24.33
2018-09-10T10:50:01.914Z,24.45
2018-09-10T10:52:30.302Z,24.51
2018-09-10T10:54:58.729Z,24.60
2018-09-10T10:57:27.322Z,24.71
2018-09-10T10:59:55.732Z,24.87
2018-09-10T11:02:24.278Z,24.95
2018-09-10T11:04:52.895Z,25.01
2018-09-10T11:07:21.356Z,25.17
2018-09-10T11:09:49.963Z,25.37
2018-09-10T11:12:18.326Z,25.47
2018-09-10T11:14:46.724Z,25.61
2018-09-10T11:17:15.109Z,25.68
2018-09-10T11:19:44.462Z,25.74
2018-09-10T11:22:12.943Z,25.80
2018-09-10T11:24:41.497Z,25.95
2018-09-10T11:27:09.892Z,26.06
2018-09-10T11:29:38.338Z,26.16
2018-09-10T11:32:06.734Z,26.26
2018-09-10T11:34:35.205Z,26.30
2018-09-10T11:37:03.529Z,26.38
2018-09-10T11:39:31.991Z,26.45
2018-09-10T11:42:00.628Z,26.51
2018-09-10T11:44:29.065Z,26.60
2018-09-10T11:46:57.602Z,26.64
2018-09-10T11:49:26.189Z,26.70
2018-09-10T11:51:54.576Z,26.77
2018-09-10T11:54:23.049Z,26.76
2018-09-10T11:56:51.605Z,26.70
2018-09-10T11:59:20.028Z,26.70
2018-09-10T12:01:48.914Z,26.81
2018-09-10T12:04:18.396Z,26.88
2018-09-10T12:06:46.864Z,26.96
2018-09-10T12:09:15.244Z,27.08
2018-09-10T12:11:43.689Z,27.07
2018-09-10T12:14:12.098Z,27.09
2018-09-10T12:16:40.496Z,27.18
2018-09-10T12:19:09.030Z,27.21
2018-09-10T12:21:37.475Z,27.17
2018-09-10T12:24:05.943Z,27.20
2018-09-10T12:26:34.522Z,27.20
2018-09-10T12:29:02.900Z,27.08
2018-09-10T12:31:32.293Z,26.97
2018-09-10T12:34:00.687Z,26.96
2018-09-10T12:36:29.035Z,27.03
2018-09-10T12:38:57.427Z,27.14
2018-09-10T12:41:25.915Z,27.19
2018-09-10T12:43:54.279Z,27.19
2018-09-10T12:46:22.667Z,27.23
2018-09-10T12:48:51.118Z,27.28
2018-09-10T12:51:19.617Z,27.27
2018-09-10T12:53:47.998Z,27.21
2018-09-10T12:56:16.555Z,27.16
2018-09-10T12:58:44.945Z,27.16
2018-09-10T13:01:13.340Z,27.18
2018-09-10T13:03:41.766Z,27.28
2018-09-10T13:06:10.195Z,27.39
2018-09-10T13:08:38.639Z,27.46
2018-09-10T13:11:07.253Z,27.51
2018-09-10T13:13:35.599Z,27.57
2018-09-10T13:16:04.055Z,27.56
2018-09-10T13:18:32.448Z,27.61
2018-09-10T13:21:01.015Z,27.66
2018-09-10T13:23:29.373Z,27.71
2018-09-10T13:25:57.899Z,27.79
2018-09-10T13:28:26.588Z,27.82
2018-09-10T13:30:55.008Z,27.75
2018-09-10T13:33:23.596Z,27.60
2018-09-10T13:35:52.519Z,27.50
2018-09-10T13:38:20.912Z,27.46
2018-09-10T13:40:49.544Z,27.43
2018-09-10T13:43:18.032Z,27.46
2018-09-10T13:45:46.452Z,27.56
2018-09-10T13:48:14.956Z,27.73
2018-09-10T13:50:43.292Z,27.88
2018-09-10T13:53:11.761Z,27.98
2018-09-10T13:55:40.144Z,28.02
2018-09-10T13:58:09.286Z,28.12
2018-09-10T14:00:37.644Z,28.22
2018-09-10T14:03:06.163Z,28.34
2018-09-10T14:05:34.740Z,28.35
2018-09-10T14:08:03.094Z,28.31
2018-09-10T14:10:31.767Z,28.28
2018-09-10T14:13:00.263Z,28.25
2018-09-10T14:15:28.786Z,28.21
2018-09-10T14:17:57.225Z,28.18
2018-09-10T14:20:25.699Z,28.14
2018-09-10T14:22:55.092Z,28.14
2018-09-10T14:25:23.878Z,28.06
2018-09-10T14:27:52.287Z,27.98
2018-09-10T14:30:20.674Z,27.97
2018-09-10T14:32:49.233Z,27.96
2018-09-10T14:35:17.655Z,27.88
2018-09-10T14:37:46.015Z,28.01
2018-09-10T14:40:14.862Z,27.98
2018-09-10T14:42:43.331Z,27.96
2018-09-10T14:45:11.712Z,27.98
2018-09-10T14:47:40.267Z,27.94
2018-09-10T14:50:08.624Z,27.84
2018-09-10T14:52:37.092Z,27.77
2018-09-10T14:55:06.635Z,27.66
2018-09-10T14:57:35.144Z,27.59
2018-09-10T15:00:03.656Z,27.59
2018-09-10T15:02:32.280Z,27.59
2018-09-10T15:05:00.695Z,27.59
2018-09-10T15:07:29.155Z,27.57
2018-09-10T15:09:57.711Z,27.61
2018-09-10T15:12:26.107Z,27.65
2018-09-10T15:14:54.456Z,27.65
2018-09-10T15:17:22.895Z,27.61
2018-09-10T15:19:51.359Z,27.64
2018-09-10T15:22:19.936Z,27.61
2018-09-10T15:24:48.339Z,27.63
2018-09-10T15:27:16.684Z,27.66
2018-09-10T15:29:45.063Z,27.74
2018-09-10T15:32:13.475Z,27.77
2018-09-10T15:34:41.935Z,27.74
2018-09-10T15:37:10.320Z,27.70
2018-09-10T15:39:38.716Z,27.66
2018-09-10T15:42:07.167Z,27.63
2018-09-10T15:44:35.640Z,27.60
2018-09-10T15:47:04.060Z,27.54
2018-09-10T15:49:32.398Z,27.46
2018-09-10T15:52:00.736Z,27.40
2018-09-10T15:54:29.150Z,27.32
2018-09-10T15:56:57.536Z,27.25
2018-09-10T15:59:25.960Z,27.12
2018-09-10T16:01:54.818Z,27.03
2018-09-10T16:04:23.168Z,26.94
2018-09-10T16:06:51.892Z,26.85
2018-09-10T16:09:20.294Z,26.82
2018-09-10T16:11:48.736Z,26.77
2018-09-10T16:14:17.296Z,26.76
2018-09-10T16:16:45.754Z,26.74
2018-09-10T16:19:14.166Z,26.71
2018-09-10T16:21:42.536Z,26.69
2018-09-10T16:24:10.960Z,26.66
2018-09-10T16:26:39.320Z,26.65
2018-09-10T16:29:07.684Z,26.67
2018-09-10T16:31:36.103Z,26.70
2018-09-10T16:34:04.546Z,26.71
2018-09-10T16:36:32.911Z,26.68
2018-09-10T16:39:01.343Z,26.63
2018-09-10T16:41:29.719Z,26.58
2018-09-10T16:43:58.143Z,26.55
2018-09-10T16:46:26.563Z,26.51
2018-09-10T16:48:55.003Z,26.48
2018-09-10T16:51:23.714Z,26.43
2018-09-10T16:53:52.288Z,26.37
2018-09-10T16:56:20.684Z,26.28
2018-09-10T16:58:49.411Z,26.23
2018-09-10T17:01:17.879Z,26.13
2018-09-10T17:03:46.369Z,26.01
2018-09-10T17:06:14.806Z,25.93
2018-09-10T17:08:43.167Z,25.83
2018-09-10T17:11:11.551Z,25.74
2018-09-10T17:13:39.931Z,25.67
2018-09-10T17:16:08.467Z,25.56
2018-09-10T17:18:36.949Z,25.43
2018-09-10T17:21:05.383Z,25.38
2018-09-10T17:23:33.751Z,25.18
2018-09-10T17:26:02.162Z,25.00
2018-09-10T17:28:30.500Z,24.82
2018-09-10T17:30:58.951Z,24.65
2018-09-10T17:33:27.356Z,24.53
2018-09-10T17:35:55.843Z,24.47
2018-09-10T17:38:24.387Z,24.35
2018-09-10T17:40:52.835Z,24.25
2018-09-10T17:43:21.195Z,24.16
2018-09-10T17:45:49.756Z,24.09
2018-09-10T17:48:18.259Z,23.96
2018-09-10T17:50:46.671Z,23.83
2018-09-10T17:53:15.283Z,23.69
2018-09-10T17:55:43.676Z,23.57
2018-09-10T17:58:12.076Z,23.49
2018-09-10T18:00:42.039Z,23.45
2018-09-10T18:03:11.861Z,23.41
2018-09-10T18:05:40.275Z,23.36
2018-09-10T18:08:08.898Z,23.36
2018-09-10T18:10:37.805Z,23.33
2018-09-10T18:13:07.718Z,23.28
2018-09-10T18:15:36.215Z,23.17
2018-09-10T18:18:05.083Z,23.17
2018-09-10T18:20:34.134Z,23.12
2018-09-10T18:23:02.811Z,23.08
2018-09-10T18:25:31.270Z,22.99
2018-09-10T18:27:59.830Z,22.94
2018-09-10T18:30:28.317Z,22.94
2018-09-10T18:32:56.797Z,23.05
2018-09-10T18:35:25.328Z,23.17
2018-09-10T18:37:53.783Z,23.22
2018-09-10T18:40:22.345Z,23.20
2018-09-10T18:42:50.559Z,23.18
2018-09-10T18:45:19.192Z,23.18
2018-09-10T18:47:47.634Z,23.20
2018-09-10T18:50:16.143Z,23.20
2018-09-10T18:52:44.660Z,23.16
2018-09-10T18:55:13.540Z,23.13
2018-09-10T18:57:41.931Z,23.13
2018-09-10T19:00:10.503Z,23.15
2018-09-10T19:02:38.946Z,23.13
2018-09-10T19:05:07.688Z,23.08
2018-09-10T19:07:36.279Z,23.01
2018-09-10T19:10:04.903Z,22.91
2018-09-10T19:12:33.479Z,22.75
2018-09-10T19:15:02.038Z,22.61
2018-09-10T19:17:30.449Z,22.54
2018-09-10T19:19:58.776Z,22.48
2018-09-10T19:22:27.179Z,22.43
2018-09-10T19:24:55.547Z,22.39
2018-09-10T19:27:24.623Z,22.36
2018-09-10T19:29:53.206Z,22.30
2018-09-10T19:32:21.696Z,22.26
2018-09-10T19:34:50.574Z,22.18
2018-09-10T19:37:19.157Z,22.07
2018-09-10T19:39:47.622Z,21.99
2018-09-10T19:42:16.066Z,21.93
2018-09-10T19:44:45.615Z,21.89
2018-09-10T19:47:14.160Z,21.86
2018-09-10T19:49:43.608Z,21.81
2018-09-10T19:52:12.202Z,21.80
2018-09-10T19:54:41.664Z,21.68
2018-09-10T19:57:11.131Z,21.65
2018-09-10T19:59:39.745Z,21.66
2018-09-10T20:02:08.174Z,21.65
2018-09-10T20:04:37.462Z,21.62
2018-09-10T20:07:06.060Z,21.49
2018-09-10T20:09:34.437Z,21.34
2018-09-10T20:12:02.876Z,21.30
2018-09-10T20:14:31.432Z,21.25
2018-09-10T20:17:00.617Z,21.21
2018-09-10T20:19:29.259Z,21.17
2018-09-10T20:21:57.823Z,21.06
2018-09-10T20:24:26.322Z,21.00
2018-09-10T20:26:54.774Z,20.97
2018-09-10T20:29:23.290Z,21.00
2018-09-10T20:31:51.756Z,21.01
2018-09-10T20:34:20.189Z,21.00
2018-09-10T20:36:48.709Z,21.02
2018-09-10T20:39:17.188Z,20.99
2018-09-10T20:41:45.580Z,20.92
2018-09-10T20:44:14.116Z,20.79
2018-09-10T20:46:43.837Z,20.69
2018-09-10T20:49:12.348Z,20.69
2018-09-10T20:51:40.750Z,20.64
2018-09-10T20:54:09.165Z,20.57
2018-09-10T20:56:37.556Z,20.59
2018-09-10T20:59:06.212Z,20.59
2018-09-10T21:01:34.648Z,20.64
2018-09-10T21:04:03.135Z,20.70
2018-09-10T21:06:32.100Z,20.72
2018-09-10T21:09:00.716Z,20.68
2018-09-10T21:11:29.236Z,20.68
2018-09-10T21:13:57.920Z,20.69
2018-09-10T21:16:26.467Z,20.59
2018-09-10T21:18:55.016Z,20.52
2018-09-10T21:21:23.509Z,20.52
2018-09-10T21:23:51.996Z,20.49
2018-09-10T21:26:20.319Z,20.52
2018-09-10T21:28:48.795Z,20.50
2018-09-10T21:31:17.143Z,20.45
2018-09-10T21:33:45.580Z,20.40
2018-09-10T21:36:13.975Z,20.46
2018-09-10T21:38:42.355Z,20.44
2018-09-10T21:41:10.686Z,20.43
2018-09-10T21:43:39.408Z,20.37
2018-09-10T21:46:07.776Z,20.32
2018-09-10T21:48:37.024Z,20.27
2018-09-10T21:51:05.502Z,20.26
2018-09-10T21:53:33.836Z,20.25
2018-09-10T21:56:02.160Z,20.25
2018-09-10T21:58:30.621Z,20.21
2018-09-10T22:00:59.218Z,20.17
2018-09-10T22:03:28.047Z,20.16
2018-09-10T22:05:56.626Z,20.08
2018-09-10T22:08:25.642Z,20.02
2018-09-10T22:10:54.075Z,20.00
2018-09-10T22:13:22.538Z,20.01
2018-09-10T22:15:51.128Z,20.03
2018-09-10T22:18:19.448Z,19.98
2018-09-10T22:20:47.916Z,19.92
2018-09-10T22:23:16.309Z,19.89
2018-09-10T22:25:44.642Z,19.87
2018-09-10T22:28:13.111Z,19.83
2018-09-10T22:30:41.552Z,19.78
2018-09-10T22:33:09.948Z,19.73
2018-09-10T22:35:38.338Z,19.66
2018-09-10T22:38:06.678Z,19.63
2018-09-10T22:40:35.002Z,19.53
2018-09-10T22:43:03.468Z,19.46
2018-09-10T22:45:31.808Z,19.38
2018-09-10T22:48:00.178Z,19.23
2018-09-10T22:50:28.606Z,19.18
2018-09-10T22:52:56.918Z,19.13
2018-09-10T22:55:25.339Z,19.07
2018-09-10T22:57:53.746Z,19.01
2018-09-10T23:00:22.187Z,18.94
2018-09-10T23:02:50.964Z,18.87
2018-09-10T23:05:19.422Z,18.82
2018-09-10T23:07:47.797Z,18.86
2018-09-10T23:10:16.178Z,18.82
2018-09-10T23:12:44.625Z,18.80
2018-09-10T23:15:12.971Z,18.78
2018-09-10T23:17:41.563Z,18.78
2018-09-10T23:20:10.162Z,18.77
2018-09-10T23:22:38.512Z,18.73
2018-09-10T23:25:06.902Z,18.72
2018-09-10T23:27:35.463Z,18.75
2018-09-10T23:30:03.925Z,18.78
2018-09-10T23:32:32.331Z,18.82
2018-09-10T23:35:00.876Z,18.87
2018-09-10T23:37:29.314Z,18.93
2018-09-10T23:39:57.824Z,18.96
2018-09-10T23:42:26.342Z,18.98
2018-09-10T23:44:54.742Z,19.00
2018-09-10T23:47:23.160Z,18.99
2018-09-10T23:49:51.656Z,18.94
2018-09-10T23:52:20.088Z,18.85
2018-09-10T23:54:48.406Z,18.83
2018-09-10T23:57:16.924Z,18.84
2018-09-10T23:59:45.372Z,18.82
